Terminal Aerodrome Forecast
Issued by NWS Jackson, KY

Home | Current Version | Previous Version | Text Only | Print | Product List | Glossary On
Versions: 1 2 3 4 5 6 7 8 9 10 11 12 13 14 15 16 17 18
000
FTUS43 KJKL 301700
TAFLOZ
TAF
KLOZ 301720Z 3018/0118 VRB04KT P6SM SKC
     FM010600 00000KT 3SM BR SKC
     FM010700 00000KT 1/4SM FG VV002
     FM011230 00000KT 2SM BR BKN002
     FM011330 00000KT 5SM BR SCT002
     FM011400 VRB03KT P6SM SKC=

USA.gov is the U.S. government's official web portal to all federal, state and local government web resources and services.